Terminal Aerodrome Forecast
Issued by NWS

Home | Current Version | Previous Version | Text Only | Print | Product List | Glossary On
Versions: 1 2 3 4 5 6 7 8 9 10 11 12
251
FTUS43 KEAX 102334
TAFMKC
TAF
KMKC 102334Z 1100/1124 13008KT P6SM OVC040
     FM111000 18009KT 6SM -DZ OVC015
     FM111100 18008KT 5SM -DZ BR OVC006
     FM111800 24006KT 6SM -DZ BR OVC008
     FM111900 26007KT P6SM OVC015
     FM112200 32008KT P6SM BKN050=

USA.gov is the U.S. government's official web portal to all federal, state and local government web resources and services.